createdAt,value
2023-03-12T00:16:59.325Z,70.84
2023-03-12T00:19:25.812Z,71.20
2023-03-12T00:21:52.266Z,71.10
2023-03-12T00:24:18.827Z,71.04
2023-03-12T00:26:45.285Z,70.76
2023-03-12T00:29:11.743Z,70.53
2023-03-12T00:31:38.327Z,70.80
2023-03-12T00:34:04.834Z,70.34
2023-03-12T00:36:32.723Z,70.40
2023-03-12T00:39:00.683Z,70.13
2023-03-12T00:41:28.091Z,69.88
2023-03-12T00:43:54.628Z,70.20
2023-03-12T00:46:21.735Z,69.73
2023-03-12T00:48:48.334Z,69.83
2023-03-12T00:51:15.122Z,69.98
2023-03-12T00:53:41.799Z,70.02
2023-03-12T00:56:08.540Z,69.95
2023-03-12T00:58:35.903Z,69.58
2023-03-12T01:01:02.436Z,69.64
2023-03-12T01:03:28.954Z,69.88
2023-03-12T01:05:55.457Z,69.54
2023-03-12T01:08:22.836Z,69.65
2023-03-12T01:10:49.484Z,69.64
2023-03-12T01:13:15.991Z,69.91
2023-03-12T01:15:42.629Z,69.83
2023-03-12T01:18:09.045Z,70.08
2023-03-12T01:20:35.876Z,70.09
2023-03-12T01:23:02.281Z,70.19
2023-03-12T01:25:28.830Z,70.31
2023-03-12T01:27:55.258Z,70.17
2023-03-12T01:30:21.792Z,70.21
2023-03-12T01:32:48.313Z,70.22
2023-03-12T01:35:14.813Z,69.82
2023-03-12T01:37:41.242Z,70.14
2023-03-12T01:40:08.136Z,70.23
2023-03-12T01:42:34.791Z,70.04
2023-03-12T01:45:03.415Z,69.99
2023-03-12T01:47:31.957Z,70.10
2023-03-12T01:50:00.581Z,70.12
2023-03-12T01:52:29.624Z,70.52
2023-03-12T01:55:02.620Z,70.30
2023-03-12T01:57:36.372Z,70.33
2023-03-12T02:00:11.542Z,70.20
2023-03-12T02:02:42.698Z,70.46
2023-03-12T02:05:17.022Z,70.45
2023-03-12T02:07:43.672Z,70.36
2023-03-12T02:10:11.034Z,70.12
2023-03-12T02:12:37.544Z,69.78
2023-03-12T02:15:05.118Z,69.68
2023-03-12T02:17:31.966Z,69.26
2023-03-12T02:20:13.181Z,69.23
2023-03-12T02:22:42.685Z,68.71
2023-03-12T02:25:18.755Z,68.42
2023-03-12T02:27:45.628Z,68.00
2023-03-12T02:30:15.895Z,67.50
2023-03-12T02:32:44.013Z,67.49
2023-03-12T02:35:11.077Z,67.11
2023-03-12T02:37:50.453Z,67.11
2023-03-12T02:40:27.921Z,66.94
2023-03-12T02:42:55.511Z,66.96
2023-03-12T02:45:22.609Z,66.93
2023-03-12T02:47:49.088Z,66.72
2023-03-12T02:50:15.857Z,66.69
2023-03-12T02:52:42.596Z,66.46
2023-03-12T02:55:09.872Z,66.26
2023-03-12T02:57:37.539Z,65.84
2023-03-12T03:00:12.201Z,65.82
2023-03-12T03:02:42.183Z,65.86
2023-03-12T03:05:10.766Z,65.90
2023-03-12T03:07:37.427Z,66.22
2023-03-12T03:10:05.129Z,66.23
2023-03-12T03:12:33.767Z,66.69
2023-03-12T03:15:01.293Z,67.21
2023-03-12T03:17:28.029Z,67.14
2023-03-12T03:19:54.608Z,67.35
2023-03-12T03:22:22.608Z,67.11
2023-03-12T03:24:49.198Z,66.63
2023-03-12T03:27:15.686Z,66.85
2023-03-12T03:29:42.300Z,67.08
2023-03-12T03:32:08.974Z,66.70
2023-03-12T03:34:35.549Z,66.55
2023-03-12T03:37:02.144Z,66.33
2023-03-12T03:39:29.945Z,65.84
2023-03-12T03:41:56.880Z,65.94
2023-03-12T03:44:25.490Z,66.05
2023-03-12T03:46:55.207Z,66.04
2023-03-12T03:49:22.401Z,66.24
2023-03-12T03:51:49.879Z,66.83
2023-03-12T03:54:20.782Z,67.08
2023-03-12T03:56:47.554Z,67.35
2023-03-12T03:59:14.544Z,67.35
2023-03-12T04:01:42.212Z,67.47
2023-03-12T04:04:08.710Z,67.15
2023-03-12T04:06:35.938Z,67.45
2023-03-12T04:09:02.432Z,67.58
2023-03-12T04:11:29.983Z,67.65
2023-03-12T04:13:57.957Z,67.75
2023-03-12T04:16:27.218Z,67.85
2023-03-12T04:18:54.871Z,68.11
2023-03-12T04:21:22.565Z,68.37
2023-03-12T04:23:50.298Z,68.61
2023-03-12T04:26:17.731Z,68.64
2023-03-12T04:28:44.314Z,69.02
2023-03-12T04:31:11.691Z,69.20
2023-03-12T04:33:47.344Z,69.49
2023-03-12T04:36:14.607Z,69.75
2023-03-12T04:38:43.608Z,69.76
2023-03-12T04:41:14.858Z,70.03
2023-03-12T04:43:47.555Z,70.00
2023-03-12T04:46:15.261Z,70.12
2023-03-12T04:48:43.177Z,70.26
2023-03-12T04:51:10.107Z,70.62
2023-03-12T04:53:37.020Z,70.89
2023-03-12T04:56:03.599Z,70.25
2023-03-12T04:58:32.036Z,69.97
2023-03-12T05:00:58.713Z,69.62
2023-03-12T05:03:25.348Z,69.91
2023-03-12T05:05:51.788Z,70.25
2023-03-12T05:08:18.278Z,70.18
2023-03-12T05:10:45.359Z,70.50
2023-03-12T05:13:19.458Z,70.31
2023-03-12T05:15:47.458Z,70.23
2023-03-12T05:18:14.891Z,70.28
2023-03-12T05:20:41.634Z,70.12
2023-03-12T05:23:08.315Z,69.68
2023-03-12T05:25:39.050Z,69.52
2023-03-12T05:28:05.506Z,69.97
2023-03-12T05:30:32.134Z,69.88
2023-03-12T05:32:59.238Z,69.89
2023-03-12T05:35:26.161Z,69.84
2023-03-12T05:37:52.667Z,69.71
2023-03-12T05:40:19.459Z,69.96
2023-03-12T05:42:45.865Z,69.77
2023-03-12T05:45:13.015Z,69.71
2023-03-12T05:47:44.158Z,69.67
2023-03-12T05:50:12.544Z,70.02
2023-03-12T05:52:39.000Z,70.24
2023-03-12T05:55:06.147Z,70.32
2023-03-12T05:57:32.921Z,70.16
2023-03-12T06:00:00.913Z,70.37
2023-03-12T06:02:27.509Z,71.14
2023-03-12T06:04:54.058Z,71.27
2023-03-12T06:07:20.487Z,70.98
2023-03-12T06:09:47.051Z,71.08
2023-03-12T06:12:14.232Z,71.23
2023-03-12T06:14:40.703Z,71.46
2023-03-12T06:17:07.162Z,71.45
2023-03-12T06:19:33.620Z,71.52
2023-03-12T06:22:00.917Z,71.38
2023-03-12T06:24:27.928Z,71.47
2023-03-12T06:27:00.227Z,71.91
2023-03-12T06:29:26.622Z,72.00
2023-03-12T06:31:53.322Z,72.11
2023-03-12T06:34:19.863Z,72.07
2023-03-12T06:36:46.664Z,72.73
2023-03-12T06:39:13.063Z,73.27
2023-03-12T06:41:40.538Z,73.84
2023-03-12T06:44:07.037Z,74.13
2023-03-12T06:46:33.507Z,75.10
2023-03-12T06:49:00.016Z,74.84
2023-03-12T06:51:26.461Z,75.68
2023-03-12T06:53:53.002Z,76.42
2023-03-12T06:56:19.611Z,77.13
2023-03-12T06:58:46.028Z,77.39
2023-03-12T07:01:12.500Z,77.95
2023-03-12T07:03:38.941Z,78.09
2023-03-12T07:06:05.683Z,78.31
2023-03-12T07:08:32.118Z,78.86
2023-03-12T07:11:01.722Z,79.06
2023-03-12T07:13:28.777Z,79.72
2023-03-12T07:15:55.317Z,79.75
2023-03-12T07:18:21.829Z,80.19
2023-03-12T07:20:48.269Z,80.25
2023-03-12T07:23:15.073Z,80.82
2023-03-12T07:25:42.629Z,80.73
2023-03-12T07:28:09.484Z,80.93
2023-03-12T07:30:36.115Z,80.81
2023-03-12T07:33:03.847Z,81.12
2023-03-12T07:35:31.096Z,81.09
2023-03-12T07:37:57.858Z,81.21
2023-03-12T07:40:24.269Z,81.23
2023-03-12T07:42:51.341Z,81.34
2023-03-12T07:45:18.447Z,81.42
2023-03-12T07:47:45.847Z,81.58
2023-03-12T07:50:13.129Z,81.70
2023-03-12T07:52:39.584Z,82.08
2023-03-12T07:55:07.061Z,82.54
2023-03-12T07:57:33.532Z,82.69
2023-03-12T08:00:00.307Z,82.95
2023-03-12T08:02:26.790Z,83.23
2023-03-12T08:04:53.323Z,83.52
2023-03-12T08:07:19.879Z,83.81
2023-03-12T08:09:49.454Z,84.00
2023-03-12T08:12:16.240Z,84.14
2023-03-12T08:14:42.759Z,84.28
2023-03-12T08:17:09.570Z,84.63
2023-03-12T08:19:35.962Z,84.73
2023-03-12T08:22:02.388Z,85.32
2023-03-12T08:24:28.835Z,85.21
2023-03-12T08:26:55.934Z,85.13
2023-03-12T08:29:22.325Z,85.44
2023-03-12T08:32:03.825Z,85.52
2023-03-12T08:34:31.106Z,85.49
2023-03-12T08:36:57.608Z,85.54
2023-03-12T08:39:24.343Z,85.80
2023-03-12T08:41:55.111Z,85.86
2023-03-12T08:44:22.955Z,85.90
2023-03-12T08:46:49.437Z,85.96
2023-03-12T08:49:16.057Z,85.90
2023-03-12T08:51:42.445Z,85.94
2023-03-12T08:54:09.397Z,85.77
2023-03-12T08:56:42.287Z,85.82
2023-03-12T08:59:10.144Z,85.98
2023-03-12T09:01:36.653Z,86.06
2023-03-12T09:04:04.277Z,86.00
2023-03-12T09:06:30.699Z,86.06
2023-03-12T09:08:57.632Z,86.19
2023-03-12T09:11:24.126Z,86.27
2023-03-12T09:14:16.913Z,86.09
2023-03-12T09:16:37.013Z,86.12
2023-03-12T09:19:03.731Z,86.25
2023-03-12T09:21:30.316Z,86.30
2023-03-12T09:23:56.815Z,86.37
2023-03-12T09:26:24.005Z,86.33
2023-03-12T09:28:50.548Z,86.09
2023-03-12T09:31:17.344Z,85.82
2023-03-12T09:33:43.852Z,85.97
2023-03-12T09:36:10.305Z,85.84
2023-03-12T09:38:37.831Z,85.92
2023-03-12T09:41:05.382Z,86.01
2023-03-12T09:43:37.682Z,85.90
2023-03-12T09:46:04.627Z,85.88
2023-03-12T09:48:38.090Z,85.98
2023-03-12T09:51:28.702Z,86.25
2023-03-12T09:53:59.128Z,85.96
2023-03-12T09:56:26.399Z,85.75
2023-03-12T09:58:54.545Z,85.53
2023-03-12T10:01:27.082Z,85.50
2023-03-12T10:04:12.207Z,85.32
2023-03-12T10:06:40.031Z,85.46
2023-03-12T10:09:23.093Z,85.22
2023-03-12T10:11:52.407Z,85.21
2023-03-12T10:14:31.280Z,85.11
2023-03-12T10:17:09.878Z,84.77
2023-03-12T10:19:59.790Z,84.92
2023-03-12T10:22:30.057Z,85.16
2023-03-12T10:25:20.711Z,85.20
2023-03-12T10:27:47.605Z,85.33
2023-03-12T10:30:18.888Z,85.22
2023-03-12T10:32:51.401Z,85.02
2023-03-12T10:35:21.975Z,84.87
2023-03-12T10:37:55.380Z,84.97
2023-03-12T10:40:27.465Z,84.50
2023-03-12T10:42:54.674Z,84.08
2023-03-12T10:45:32.750Z,84.17
2023-03-12T10:48:02.778Z,84.18
2023-03-12T10:50:32.654Z,83.69
2023-03-12T10:53:27.866Z,83.49
2023-03-12T10:56:10.134Z,83.44
2023-03-12T10:58:42.164Z,82.98
2023-03-12T11:01:23.901Z,83.05
2023-03-12T11:03:51.732Z,83.25
2023-03-12T11:06:27.772Z,83.22
2023-03-12T11:09:16.712Z,83.28
2023-03-12T11:11:45.224Z,83.17
2023-03-12T11:14:23.849Z,82.36
2023-03-12T11:16:51.689Z,82.39
2023-03-12T11:19:34.981Z,82.38
2023-03-12T11:22:08.045Z,82.48
2023-03-12T11:24:35.365Z,82.46
2023-03-12T11:27:21.014Z,82.60
2023-03-12T11:29:49.164Z,82.53
2023-03-12T11:32:18.619Z,82.43
2023-03-12T11:34:49.443Z,82.48
2023-03-12T11:37:41.596Z,82.85
2023-03-12T11:40:17.725Z,82.57
2023-03-12T11:43:12.001Z,82.44
2023-03-12T11:46:16.122Z,82.53
2023-03-12T11:48:55.368Z,82.57
2023-03-12T11:52:00.328Z,82.49
2023-03-12T11:55:00.630Z,82.56
2023-03-12T11:57:36.289Z,82.57
2023-03-12T12:00:14.881Z,82.41
2023-03-12T12:02:44.238Z,82.24
2023-03-12T12:05:19.426Z,82.24
2023-03-12T12:08:23.464Z,81.86
2023-03-12T12:11:12.341Z,81.84
2023-03-12T12:13:47.741Z,81.39
2023-03-12T12:16:35.788Z,81.22
2023-03-12T12:19:47.371Z,80.93
2023-03-12T12:22:31.701Z,80.66
2023-03-12T12:25:20.153Z,80.38
2023-03-12T12:28:22.593Z,79.84
2023-03-12T12:31:19.745Z,79.51
2023-03-12T12:33:55.173Z,79.32
2023-03-12T12:36:24.379Z,79.04
2023-03-12T12:38:56.225Z,78.64
2023-03-12T12:41:26.892Z,78.54
2023-03-12T12:43:56.161Z,78.69
2023-03-12T12:46:23.487Z,78.50
2023-03-12T12:48:55.234Z,78.64
2023-03-12T12:51:25.777Z,78.27
2023-03-12T12:54:13.968Z,77.73
2023-03-12T12:57:00.772Z,77.51
2023-03-12T12:59:40.909Z,77.44
2023-03-12T13:02:17.987Z,77.45
2023-03-12T13:04:44.660Z,77.58
2023-03-12T13:07:13.955Z,77.82
2023-03-12T13:09:44.261Z,77.80
2023-03-12T13:12:32.583Z,77.82
2023-03-12T13:15:00.222Z,78.12
2023-03-12T13:17:31.443Z,78.54
2023-03-12T13:20:11.957Z,78.74
2023-03-12T13:22:58.404Z,79.00
2023-03-12T13:25:55.603Z,79.10
2023-03-12T13:28:30.204Z,79.35
2023-03-12T13:30:57.359Z,79.31
2023-03-12T13:33:37.476Z,79.29
2023-03-12T13:36:11.580Z,79.15
2023-03-12T13:38:58.846Z,78.84
2023-03-12T13:41:42.525Z,78.78
2023-03-12T13:44:26.911Z,78.61
2023-03-12T13:47:11.390Z,78.34
2023-03-12T13:49:53.226Z,78.15
2023-03-12T13:52:40.855Z,78.19
2023-03-12T13:55:13.325Z,77.86
2023-03-12T13:57:43.232Z,77.93
2023-03-12T14:00:19.992Z,77.60
2023-03-12T14:02:53.225Z,77.46
2023-03-12T14:05:20.690Z,77.40
2023-03-12T14:08:15.086Z,77.29
2023-03-12T14:10:53.381Z,77.06
2023-03-12T14:13:41.145Z,76.89
2023-03-12T14:16:16.780Z,77.15
2023-03-12T14:18:44.781Z,76.82
2023-03-12T14:21:15.117Z,76.75
2023-03-12T14:23:48.098Z,76.73
2023-03-12T14:26:21.632Z,76.43
2023-03-12T14:28:54.785Z,76.34
2023-03-12T14:31:24.008Z,75.96
2023-03-12T14:33:52.129Z,75.67
2023-03-12T14:36:20.551Z,75.41
2023-03-12T14:38:48.972Z,74.71
2023-03-12T14:41:24.526Z,73.87
2023-03-12T14:43:52.849Z,73.31
2023-03-12T14:46:21.927Z,72.47
2023-03-12T14:48:50.344Z,72.09
2023-03-12T14:51:24.399Z,71.90
2023-03-12T14:53:51.798Z,71.45
2023-03-12T14:56:27.745Z,71.34
2023-03-12T14:58:54.496Z,71.04
2023-03-12T15:01:23.464Z,70.50
2023-03-12T15:04:03.740Z,70.52
2023-03-12T15:06:47.472Z,70.58
2023-03-12T15:09:22.268Z,70.72
2023-03-12T15:12:06.543Z,70.91
2023-03-12T15:14:35.922Z,70.92
2023-03-12T15:17:03.603Z,70.80
2023-03-12T15:19:33.480Z,70.68
2023-03-12T15:22:00.223Z,70.80
2023-03-12T15:24:37.206Z,71.00
2023-03-12T15:27:25.629Z,71.10
2023-03-12T15:29:52.425Z,71.23
2023-03-12T15:32:24.957Z,71.25
2023-03-12T15:34:53.759Z,71.36
2023-03-12T15:37:33.569Z,71.15
2023-03-12T15:40:06.684Z,71.07
2023-03-12T15:42:39.433Z,70.82
2023-03-12T15:45:14.660Z,70.75
2023-03-12T15:47:41.231Z,70.45
2023-03-12T15:50:16.934Z,70.89
2023-03-12T15:53:23.010Z,70.71
2023-03-12T15:55:57.819Z,71.05
2023-03-12T15:58:28.327Z,70.96
2023-03-12T16:00:54.852Z,71.13
2023-03-12T16:03:22.225Z,71.18
2023-03-12T16:05:49.771Z,71.23
2023-03-12T16:08:23.364Z,71.51
2023-03-12T16:10:50.405Z,71.17
2023-03-12T16:13:20.014Z,71.18
2023-03-12T16:15:48.030Z,71.20
2023-03-12T16:18:19.593Z,71.22
2023-03-12T16:20:47.215Z,71.18
2023-03-12T16:23:14.192Z,71.21
2023-03-12T16:25:45.697Z,71.30
2023-03-12T16:28:14.438Z,71.18
2023-03-12T16:30:41.135Z,71.06
2023-03-12T16:33:09.308Z,71.29
2023-03-12T16:35:35.897Z,71.33
2023-03-12T16:38:02.538Z,71.50
2023-03-12T16:40:33.898Z,71.51
2023-03-12T16:43:03.326Z,71.49
2023-03-12T16:45:30.873Z,71.48
2023-03-12T16:48:02.837Z,71.52
2023-03-12T16:50:29.957Z,71.62
2023-03-12T16:52:56.632Z,71.47
2023-03-12T16:55:26.386Z,71.55
2023-03-12T16:58:01.020Z,71.26
2023-03-12T17:00:32.892Z,71.09
2023-03-12T17:02:59.719Z,70.90
2023-03-12T17:05:28.183Z,70.81
2023-03-12T17:07:54.918Z,70.73
2023-03-12T17:10:22.500Z,70.49
2023-03-12T17:12:49.008Z,70.70
2023-03-12T17:15:30.744Z,70.35
2023-03-12T17:17:59.230Z,70.53
2023-03-12T17:20:25.998Z,70.24
2023-03-12T17:22:53.029Z,70.11
2023-03-12T17:25:25.109Z,69.86
2023-03-12T17:27:51.899Z,69.78
2023-03-12T17:30:19.152Z,69.30
2023-03-12T17:32:45.761Z,69.48
2023-03-12T17:35:12.330Z,69.35
2023-03-12T17:37:38.771Z,69.33
2023-03-12T17:40:09.433Z,69.27
2023-03-12T17:42:36.746Z,69.30
2023-03-12T17:45:04.869Z,69.29
2023-03-12T17:47:31.902Z,69.24
2023-03-12T17:49:58.337Z,69.13
2023-03-12T17:52:24.993Z,69.26
2023-03-12T17:54:51.538Z,69.13
2023-03-12T17:57:19.984Z,68.84
2023-03-12T17:59:46.487Z,68.49
2023-03-12T18:02:14.235Z,68.57
2023-03-12T18:04:40.782Z,68.09
2023-03-12T18:07:07.417Z,68.26
2023-03-12T18:09:34.011Z,68.16
2023-03-12T18:12:06.118Z,68.16
2023-03-12T18:14:32.807Z,68.17
2023-03-12T18:16:59.369Z,68.05
2023-03-12T18:19:27.040Z,67.78
2023-03-12T18:21:53.587Z,68.08
2023-03-12T18:24:20.044Z,68.05
2023-03-12T18:26:49.592Z,67.92
2023-03-12T18:29:16.242Z,68.06
2023-03-12T18:31:42.985Z,68.08
2023-03-12T18:34:09.901Z,68.19
2023-03-12T18:36:36.592Z,68.26
2023-03-12T18:39:05.012Z,68.52
2023-03-12T18:41:33.032Z,68.43
2023-03-12T18:44:00.245Z,68.37
2023-03-12T19:11:40.985Z,68.53
2023-03-12T19:14:07.826Z,68.35
2023-03-12T19:16:34.933Z,68.32
2023-03-12T19:19:01.754Z,68.18
2023-03-12T19:21:28.525Z,68.16
2023-03-12T19:23:55.171Z,68.06
2023-03-12T19:26:22.274Z,67.83
2023-03-12T19:28:49.331Z,67.76
2023-03-12T19:31:16.328Z,67.58
2023-03-12T19:33:43.975Z,67.76
2023-03-12T19:36:10.972Z,67.51
2023-03-12T19:38:37.890Z,67.44
2023-03-12T19:41:08.674Z,67.57
2023-03-12T19:43:36.734Z,67.32
2023-03-12T19:46:04.201Z,67.48
2023-03-12T19:48:31.097Z,67.43
2023-03-12T19:50:58.007Z,67.53
2023-03-12T19:53:25.027Z,67.43
2023-03-12T19:55:51.982Z,67.75
2023-03-12T19:58:18.873Z,67.54
2023-03-12T20:00:45.937Z,67.59
2023-03-12T20:03:12.697Z,67.49
2023-03-12T20:05:44.140Z,67.89
2023-03-12T20:08:11.363Z,67.94
2023-03-12T20:10:39.020Z,67.98
2023-03-12T20:13:06.823Z,68.10
2023-03-12T20:15:33.742Z,68.06
2023-03-12T20:18:00.559Z,67.98
2023-03-12T20:20:27.634Z,68.12
2023-03-12T20:22:54.421Z,68.00
2023-03-12T20:25:21.192Z,68.06
2023-03-12T20:27:48.067Z,68.12
2023-03-12T20:30:15.281Z,68.04
2023-03-12T20:32:42.709Z,68.01
2023-03-12T20:35:10.295Z,67.93
2023-03-12T20:37:37.101Z,67.97
2023-03-12T20:40:05.287Z,67.79
2023-03-12T20:42:32.099Z,67.75
2023-03-12T20:44:58.996Z,67.62
2023-03-12T20:47:25.988Z,67.36
2023-03-12T20:49:55.003Z,67.83
2023-03-12T20:52:21.742Z,67.50
2023-03-12T20:54:48.374Z,67.53
2023-03-12T20:57:15.411Z,67.63
2023-03-12T20:59:43.092Z,67.67
2023-03-12T21:02:13.616Z,67.62
2023-03-12T21:04:41.737Z,67.58
2023-03-12T21:07:08.604Z,67.43
2023-03-12T21:09:35.665Z,67.66
2023-03-12T21:12:02.357Z,67.54
2023-03-12T21:14:29.325Z,67.55
2023-03-12T21:16:56.164Z,67.60
2023-03-12T21:19:24.134Z,67.62
2023-03-12T21:21:50.946Z,67.74
2023-03-12T21:24:17.561Z,67.69
2023-03-12T21:26:44.612Z,67.79
2023-03-12T21:29:11.580Z,67.76
2023-03-12T21:31:38.394Z,67.85
2023-03-12T21:34:05.594Z,68.17
2023-03-12T21:36:33.630Z,68.36
2023-03-12T21:39:01.959Z,68.63
2023-03-12T21:41:28.607Z,68.97
2023-03-12T21:43:55.269Z,69.05
2023-03-12T21:46:27.211Z,69.60
2023-03-12T21:48:54.045Z,69.60
2023-03-12T21:51:22.653Z,69.64
2023-03-12T21:53:54.618Z,69.56
2023-03-12T21:56:22.096Z,69.75
2023-03-12T21:58:49.002Z,69.90
2023-03-12T22:01:18.152Z,69.98
2023-03-12T22:03:46.560Z,70.04
2023-03-12T22:06:33.553Z,70.17
2023-03-12T22:09:00.337Z,70.13
2023-03-12T22:11:27.414Z,70.07
2023-03-12T22:13:54.258Z,70.27
2023-03-12T22:16:20.987Z,70.11
2023-03-12T22:18:47.999Z,70.36
2023-03-12T22:21:18.910Z,70.47
2023-03-12T22:23:48.120Z,70.52
2023-03-12T22:26:15.112Z,70.74
2023-03-12T22:28:42.384Z,70.80
2023-03-12T22:31:10.136Z,70.82
2023-03-12T22:33:37.181Z,71.03
2023-03-12T22:36:08.809Z,70.93
2023-03-12T22:38:36.936Z,71.02
2023-03-12T22:41:21.304Z,71.19
2023-03-12T22:43:49.782Z,71.24
2023-03-12T22:46:17.985Z,71.08
2023-03-12T22:48:46.101Z,71.14
2023-03-12T22:51:13.918Z,71.02
2023-03-12T22:53:41.932Z,70.95
2023-03-12T22:56:11.218Z,70.85
2023-03-12T22:58:38.751Z,70.91
2023-03-12T23:01:31.837Z,70.99
2023-03-12T23:03:59.913Z,70.76
2023-03-12T23:06:30.079Z,70.67
2023-03-12T23:08:57.447Z,70.63
2023-03-12T23:11:26.724Z,70.63
2023-03-12T23:13:53.653Z,70.55
2023-03-12T23:16:23.094Z,70.39
2023-03-12T23:18:50.073Z,70.22
2023-03-12T23:21:23.427Z,70.10
2023-03-12T23:23:50.796Z,70.03
2023-03-12T23:26:20.174Z,70.10
2023-03-12T23:28:47.509Z,70.00
2023-03-12T23:31:16.241Z,70.02
2023-03-12T23:33:43.476Z,69.94
2023-03-12T23:36:15.630Z,69.90
2023-03-12T23:38:42.949Z,69.93
2023-03-12T23:41:20.766Z,69.89
2023-03-12T23:43:47.860Z,69.56
2023-03-12T23:46:17.107Z,70.03
2023-03-12T23:48:48.332Z,69.82
2023-03-12T23:51:43.475Z,69.71
2023-03-12T23:54:10.226Z,69.63
2023-03-12T23:56:39.578Z,69.88
2023-03-12T23:59:09.594Z,69.60
